Napo, China
Current Conditions -  °F | °C
As of 12:00 AM on Saturday 22 Nov 2014 (Local Time) from ZGNN Reporting Station
Haze Haze  
Wind Chill: 66°   Ceiling: Unl
Heat Index: 66°   Visibility: 2.1mi
Dew Point: 64°   Wind: 4mph
Humidity: 94%   Direction: 40°NE
Pressure: 30.03"   Gusts: NA
Location:  23.3°N, 105.95°E
Report Text: ZGNN 211600Z 04002MPS 3500 BR SCT033 19/18 Q1017 NOSIG
Loading
Personal Weather Stations






























Interactive Weather Map New forecast layout! Learn more

10-Day Weather Forecast

Advertisements
Track Severe Weather on mobile